Aneta, North Dakota
Current Conditions -  °F | °C
As of 8:58 PM on Wednesday 22 Oct 2014 (Local Time) from KRDR Reporting Station
Few Clouds Few Clouds  
Wind Chill: 52°   Ceiling: Unl
Heat Index: 52°   Visibility: 10mi
Dew Point: 51°   Wind: 8mph
Humidity: 99%   Direction: 200°SSW
Pressure: 29.84"   Gusts: NA
Location:  47.68°N, 97.99°W
Report Text: KRDR 230158Z AUTO 20007KT 10SM FEW120 11/11 A2984 RMK AO2 SLP113 T01090108
Loading
Personal Weather Stations






























Interactive Weather Map
Tropical Storm Tracking
New forecast layout! Learn more

10-Day Weather Forecast

Advertisements
Track Severe Weather on mobile